sensor_id;sensor_type;location;lat;lon;timestamp;temperature;humidity
13174;DHT22;6652;48.802;9.190;2023-08-21T00:01:06;26.10;99.90
13174;DHT22;6652;48.802;9.190;2023-08-21T00:03:33;26.10;99.90
13174;DHT22;6652;48.802;9.190;2023-08-21T00:06:00;26.10;99.90
13174;DHT22;6652;48.802;9.190;2023-08-21T00:08:27;26.00;99.90
13174;DHT22;6652;48.802;9.190;2023-08-21T00:10:54;26.00;99.90
13174;DHT22;6652;48.802;9.190;2023-08-21T00:13:21;26.00;99.90
13174;DHT22;6652;48.802;9.190;2023-08-21T00:15:50;25.90;99.90
13174;DHT22;6652;48.802;9.190;2023-08-21T00:18:17;26.00;99.90
13174;DHT22;6652;48.802;9.190;2023-08-21T00:20:44;25.90;99.90
13174;DHT22;6652;48.802;9.190;2023-08-21T00:23:11;26.00;99.90
13174;DHT22;6652;48.802;9.190;2023-08-21T00:25:38;25.90;99.90
13174;DHT22;6652;48.802;9.190;2023-08-21T00:28:05;25.90;99.90
13174;DHT22;6652;48.802;9.190;2023-08-21T00:30:32;25.90;99.90
13174;DHT22;6652;48.802;9.190;2023-08-21T00:33:00;25.80;99.90
13174;DHT22;6652;48.802;9.190;2023-08-21T00:35:27;25.80;99.90
13174;DHT22;6652;48.802;9.190;2023-08-21T00:37:54;25.80;99.90
13174;DHT22;6652;48.802;9.190;2023-08-21T00:40:21;25.80;99.90
13174;DHT22;6652;48.802;9.190;2023-08-21T00:42:47;25.60;99.90
13174;DHT22;6652;48.802;9.190;2023-08-21T00:45:14;25.40;99.90
13174;DHT22;6652;48.802;9.190;2023-08-21T00:47:42;25.60;99.90
13174;DHT22;6652;48.802;9.190;2023-08-21T00:50:12;25.60;99.90
13174;DHT22;6652;48.802;9.190;2023-08-21T00:52:43;25.60;99.90
13174;DHT22;6652;48.802;9.190;2023-08-21T00:55:12;25.50;99.90
13174;DHT22;6652;48.802;9.190;2023-08-21T00:57:39;25.50;99.90
13174;DHT22;6652;48.802;9.190;2023-08-21T01:00:07;25.50;99.90
13174;DHT22;6652;48.802;9.190;2023-08-21T01:02:35;25.50;99.90
13174;DHT22;6652;48.802;9.190;2023-08-21T01:05:02;25.30;99.90
13174;DHT22;6652;48.802;9.190;2023-08-21T01:07:36;25.40;99.90
13174;DHT22;6652;48.802;9.190;2023-08-21T01:10:11;25.40;99.90
13174;DHT22;6652;48.802;9.190;2023-08-21T01:12:48;25.40;99.90
13174;DHT22;6652;48.802;9.190;2023-08-21T01:15:16;25.30;99.90
13174;DHT22;6652;48.802;9.190;2023-08-21T01:17:43;25.40;99.90
13174;DHT22;6652;48.802;9.190;2023-08-21T01:20:12;25.20;99.90
13174;DHT22;6652;48.802;9.190;2023-08-21T01:22:41;25.20;99.90
13174;DHT22;6652;48.802;9.190;2023-08-21T01:25:12;25.30;99.90
13174;DHT22;6652;48.802;9.190;2023-08-21T01:27:43;25.10;99.90
13174;DHT22;6652;48.802;9.190;2023-08-21T01:30:10;25.00;99.90
13174;DHT22;6652;48.802;9.190;2023-08-21T01:32:45;25.00;99.90
13174;DHT22;6652;48.802;9.190;2023-08-21T01:35:15;25.00;99.90
13174;DHT22;6652;48.802;9.190;2023-08-21T01:37:42;24.90;99.90
13174;DHT22;6652;48.802;9.190;2023-08-21T01:40:10;24.90;99.90
13174;DHT22;6652;48.802;9.190;2023-08-21T01:42:38;24.90;99.90
13174;DHT22;6652;48.802;9.190;2023-08-21T01:45:06;24.90;99.90
13174;DHT22;6652;48.802;9.190;2023-08-21T01:47:33;24.80;99.90
13174;DHT22;6652;48.802;9.190;2023-08-21T01:50:00;24.70;99.90
13174;DHT22;6652;48.802;9.190;2023-08-21T01:52:27;24.70;99.90
13174;DHT22;6652;48.802;9.190;2023-08-21T01:54:54;24.70;99.90
13174;DHT22;6652;48.802;9.190;2023-08-21T01:57:20;24.40;99.90
13174;DHT22;6652;48.802;9.190;2023-08-21T01:59:49;24.60;99.90
13174;DHT22;6652;48.802;9.190;2023-08-21T02:02:16;24.50;99.90
13174;DHT22;6652;48.802;9.190;2023-08-21T02:04:43;24.40;99.90
13174;DHT22;6652;48.802;9.190;2023-08-21T02:07:10;24.50;99.90
13174;DHT22;6652;48.802;9.190;2023-08-21T02:09:36;24.40;99.90
13174;DHT22;6652;48.802;9.190;2023-08-21T02:12:04;24.40;99.90
13174;DHT22;6652;48.802;9.190;2023-08-21T02:14:30;24.40;99.90
13174;DHT22;6652;48.802;9.190;2023-08-21T02:16:58;24.20;99.90
13174;DHT22;6652;48.802;9.190;2023-08-21T02:19:25;24.30;99.90
13174;DHT22;6652;48.802;9.190;2023-08-21T02:21:52;24.30;99.90
13174;DHT22;6652;48.802;9.190;2023-08-21T02:24:19;24.30;99.90
13174;DHT22;6652;48.802;9.190;2023-08-21T02:26:46;24.20;99.90
13174;DHT22;6652;48.802;9.190;2023-08-21T02:29:12;24.20;99.90
13174;DHT22;6652;48.802;9.190;2023-08-21T02:31:39;24.20;99.90
13174;DHT22;6652;48.802;9.190;2023-08-21T02:34:07;24.30;99.90
13174;DHT22;6652;48.802;9.190;2023-08-21T02:36:34;24.20;99.90
13174;DHT22;6652;48.802;9.190;2023-08-21T02:39:01;24.10;99.90
13174;DHT22;6652;48.802;9.190;2023-08-21T02:41:29;24.00;99.90
13174;DHT22;6652;48.802;9.190;2023-08-21T02:43:56;24.00;99.90
13174;DHT22;6652;48.802;9.190;2023-08-21T02:46:22;24.00;99.90
13174;DHT22;6652;48.802;9.190;2023-08-21T02:48:49;24.00;99.90
13174;DHT22;6652;48.802;9.190;2023-08-21T02:51:17;23.90;99.90
13174;DHT22;6652;48.802;9.190;2023-08-21T02:53:44;23.90;99.90
13174;DHT22;6652;48.802;9.190;2023-08-21T02:56:11;23.90;99.90
13174;DHT22;6652;48.802;9.190;2023-08-21T02:58:38;23.90;99.90
13174;DHT22;6652;48.802;9.190;2023-08-21T03:01:04;23.80;99.90
13174;DHT22;6652;48.802;9.190;2023-08-21T03:03:31;23.80;99.90
13174;DHT22;6652;48.802;9.190;2023-08-21T03:05:59;23.80;99.90
13174;DHT22;6652;48.802;9.190;2023-08-21T03:08:27;23.80;99.90
13174;DHT22;6652;48.802;9.190;2023-08-21T03:10:54;23.80;99.90
13174;DHT22;6652;48.802;9.190;2023-08-21T03:13:21;23.80;99.90
13174;DHT22;6652;48.802;9.190;2023-08-21T03:15:47;23.60;99.90
13174;DHT22;6652;48.802;9.190;2023-08-21T03:18:14;23.70;99.90
13174;DHT22;6652;48.802;9.190;2023-08-21T03:20:44;23.70;99.90
13174;DHT22;6652;48.802;9.190;2023-08-21T03:23:11;23.70;99.90
13174;DHT22;6652;48.802;9.190;2023-08-21T03:25:39;23.70;99.90
13174;DHT22;6652;48.802;9.190;2023-08-21T03:28:06;23.70;99.90
13174;DHT22;6652;48.802;9.190;2023-08-21T03:30:32;23.70;99.90
13174;DHT22;6652;48.802;9.190;2023-08-21T03:32:59;23.60;99.90
13174;DHT22;6652;48.802;9.190;2023-08-21T03:35:26;23.70;99.90
13174;DHT22;6652;48.802;9.190;2023-08-21T03:37:53;23.60;99.90
13174;DHT22;6652;48.802;9.190;2023-08-21T03:40:19;23.60;99.90
13174;DHT22;6652;48.802;9.190;2023-08-21T03:42:47;23.60;99.90
13174;DHT22;6652;48.802;9.190;2023-08-21T03:45:14;24.00;99.90
13174;DHT22;6652;48.802;9.190;2023-08-21T03:47:41;23.60;99.90
13174;DHT22;6652;48.802;9.190;2023-08-21T03:50:08;23.60;99.90
13174;DHT22;6652;48.802;9.190;2023-08-21T03:52:35;23.50;99.90
13174;DHT22;6652;48.802;9.190;2023-08-21T03:55:02;23.50;99.90
13174;DHT22;6652;48.802;9.190;2023-08-21T03:57:29;23.00;99.90
13174;DHT22;6652;48.802;9.190;2023-08-21T03:59:57;23.40;99.90
13174;DHT22;6652;48.802;9.190;2023-08-21T04:02:24;23.50;99.90
13174;DHT22;6652;48.802;9.190;2023-08-21T04:04:50;23.40;99.90
13174;DHT22;6652;48.802;9.190;2023-08-21T04:07:17;23.40;99.90
13174;DHT22;6652;48.802;9.190;2023-08-21T04:09:44;23.70;99.90
13174;DHT22;6652;48.802;9.190;2023-08-21T04:12:11;23.40;99.90
13174;DHT22;6652;48.802;9.190;2023-08-21T04:14:38;23.30;99.90
13174;DHT22;6652;48.802;9.190;2023-08-21T04:17:06;23.30;99.90
13174;DHT22;6652;48.802;9.190;2023-08-21T04:19:33;23.30;99.90
13174;DHT22;6652;48.802;9.190;2023-08-21T04:21:59;23.30;99.90
13174;DHT22;6652;48.802;9.190;2023-08-21T04:24:26;23.70;99.90
13174;DHT22;6652;48.802;9.190;2023-08-21T04:26:53;23.20;99.90
13174;DHT22;6652;48.802;9.190;2023-08-21T04:29:20;23.30;99.90
13174;DHT22;6652;48.802;9.190;2023-08-21T04:31:46;23.20;99.90
13174;DHT22;6652;48.802;9.190;2023-08-21T04:34:14;23.30;99.90
13174;DHT22;6652;48.802;9.190;2023-08-21T04:36:43;23.20;99.90
13174;DHT22;6652;48.802;9.190;2023-08-21T04:39:10;23.20;99.90
13174;DHT22;6652;48.802;9.190;2023-08-21T04:41:37;23.10;99.90
13174;DHT22;6652;48.802;9.190;2023-08-21T04:44:05;23.30;99.90
13174;DHT22;6652;48.802;9.190;2023-08-21T04:46:32;23.30;99.90
13174;DHT22;6652;48.802;9.190;2023-08-21T04:48:59;23.40;99.90
13174;DHT22;6652;48.802;9.190;2023-08-21T04:51:27;23.70;99.90
13174;DHT22;6652;48.802;9.190;2023-08-21T04:53:54;23.50;99.90
13174;DHT22;6652;48.802;9.190;2023-08-21T04:56:21;23.60;99.90
13174;DHT22;6652;48.802;9.190;2023-08-21T04:58:48;24.00;99.90
13174;DHT22;6652;48.802;9.190;2023-08-21T05:01:14;23.90;99.90
13174;DHT22;6652;48.802;9.190;2023-08-21T05:03:42;24.30;99.90
13174;DHT22;6652;48.802;9.190;2023-08-21T05:06:08;24.80;99.90
13174;DHT22;6652;48.802;9.190;2023-08-21T05:08:36;25.20;99.90
13174;DHT22;6652;48.802;9.190;2023-08-21T05:11:03;25.60;99.90
13174;DHT22;6652;48.802;9.190;2023-08-21T05:13:30;26.10;99.90
13174;DHT22;6652;48.802;9.190;2023-08-21T05:15:57;26.50;99.90
13174;DHT22;6652;48.802;9.190;2023-08-21T05:18:25;26.90;99.90
13174;DHT22;6652;48.802;9.190;2023-08-21T05:20:55;27.30;99.90
13174;DHT22;6652;48.802;9.190;2023-08-21T05:23:22;27.70;99.90
13174;DHT22;6652;48.802;9.190;2023-08-21T05:25:50;28.00;99.90
13174;DHT22;6652;48.802;9.190;2023-08-21T05:28:17;28.30;99.90
13174;DHT22;6652;48.802;9.190;2023-08-21T05:30:46;28.70;99.90
13174;DHT22;6652;48.802;9.190;2023-08-21T05:33:13;29.00;99.90
13174;DHT22;6652;48.802;9.190;2023-08-21T05:35:40;29.30;99.90
13174;DHT22;6652;48.802;9.190;2023-08-21T05:38:07;29.60;99.90
13174;DHT22;6652;48.802;9.190;2023-08-21T05:40:34;29.90;99.90
13174;DHT22;6652;48.802;9.190;2023-08-21T05:43:03;30.30;99.90
13174;DHT22;6652;48.802;9.190;2023-08-21T05:45:30;30.50;99.90
13174;DHT22;6652;48.802;9.190;2023-08-21T05:47:57;30.80;99.90
13174;DHT22;6652;48.802;9.190;2023-08-21T05:50:24;31.10;99.90
13174;DHT22;6652;48.802;9.190;2023-08-21T05:52:50;31.60;99.90
13174;DHT22;6652;48.802;9.190;2023-08-21T05:55:20;32.00;99.90
13174;DHT22;6652;48.802;9.190;2023-08-21T05:57:46;32.20;99.90
13174;DHT22;6652;48.802;9.190;2023-08-21T06:00:16;32.50;99.90
13174;DHT22;6652;48.802;9.190;2023-08-21T06:02:42;32.80;99.90
13174;DHT22;6652;48.802;9.190;2023-08-21T06:05:09;33.10;99.90
13174;DHT22;6652;48.802;9.190;2023-08-21T06:07:36;33.40;99.90
13174;DHT22;6652;48.802;9.190;2023-08-21T06:10:03;33.60;99.90
13174;DHT22;6652;48.802;9.190;2023-08-21T06:12:30;33.80;99.90
13174;DHT22;6652;48.802;9.190;2023-08-21T06:14:57;34.00;99.90
13174;DHT22;6652;48.802;9.190;2023-08-21T06:17:27;34.00;99.90
13174;DHT22;6652;48.802;9.190;2023-08-21T06:19:54;34.10;99.90
13174;DHT22;6652;48.802;9.190;2023-08-21T06:22:21;34.10;99.90
13174;DHT22;6652;48.802;9.190;2023-08-21T06:24:47;34.40;99.90
13174;DHT22;6652;48.802;9.190;2023-08-21T06:27:14;34.90;99.90
13174;DHT22;6652;48.802;9.190;2023-08-21T06:29:41;34.90;99.90
13174;DHT22;6652;48.802;9.190;2023-08-21T06:32:08;35.20;99.40
13174;DHT22;6652;48.802;9.190;2023-08-21T06:34:36;35.20;99.00
13174;DHT22;6652;48.802;9.190;2023-08-21T06:37:03;35.20;98.40
13174;DHT22;6652;48.802;9.190;2023-08-21T06:39:30;35.30;98.40
13174;DHT22;6652;48.802;9.190;2023-08-21T06:41:57;35.40;97.40
13174;DHT22;6652;48.802;9.190;2023-08-21T06:44:25;35.70;97.20
13174;DHT22;6652;48.802;9.190;2023-08-21T06:46:52;36.00;96.70
13174;DHT22;6652;48.802;9.190;2023-08-21T06:49:19;36.40;95.60
13174;DHT22;6652;48.802;9.190;2023-08-21T06:51:47;36.80;95.30
13174;DHT22;6652;48.802;9.190;2023-08-21T06:54:14;37.00;93.60
13174;DHT22;6652;48.802;9.190;2023-08-21T06:56:40;37.00;92.80
13174;DHT22;6652;48.802;9.190;2023-08-21T06:59:07;36.90;92.50
13174;DHT22;6652;48.802;9.190;2023-08-21T07:01:35;37.10;92.20
13174;DHT22;6652;48.802;9.190;2023-08-21T07:04:02;37.30;91.20
13174;DHT22;6652;48.802;9.190;2023-08-21T07:06:29;37.60;90.50
13174;DHT22;6652;48.802;9.190;2023-08-21T07:08:57;37.70;88.90
13174;DHT22;6652;48.802;9.190;2023-08-21T07:11:24;37.70;89.20
13174;DHT22;6652;48.802;9.190;2023-08-21T07:13:51;38.10;87.30
13174;DHT22;6652;48.802;9.190;2023-08-21T07:16:18;38.50;86.30
13174;DHT22;6652;48.802;9.190;2023-08-21T07:18:44;38.60;83.20
13174;DHT22;6652;48.802;9.190;2023-08-21T07:21:11;38.90;83.20
13174;DHT22;6652;48.802;9.190;2023-08-21T07:23:38;39.30;81.00
13174;DHT22;6652;48.802;9.190;2023-08-21T07:26:06;39.40;79.40
13174;DHT22;6652;48.802;9.190;2023-08-21T07:28:33;39.40;78.20
13174;DHT22;6652;48.802;9.190;2023-08-21T07:31:00;39.80;75.70
13174;DHT22;6652;48.802;9.190;2023-08-21T07:33:27;39.80;74.10
13174;DHT22;6652;48.802;9.190;2023-08-21T07:35:58;39.70;74.10
13174;DHT22;6652;48.802;9.190;2023-08-21T07:38:25;39.70;73.60
13174;DHT22;6652;48.802;9.190;2023-08-21T07:41:02;39.70;72.40
13174;DHT22;6652;48.802;9.190;2023-08-21T07:43:31;39.70;71.80
13174;DHT22;6652;48.802;9.190;2023-08-21T07:46:01;39.90;71.60
13174;DHT22;6652;48.802;9.190;2023-08-21T07:48:28;40.20;71.20
13174;DHT22;6652;48.802;9.190;2023-08-21T07:50:54;40.40;70.00
13174;DHT22;6652;48.802;9.190;2023-08-21T07:53:22;40.40;69.00
13174;DHT22;6652;48.802;9.190;2023-08-21T07:55:48;39.90;70.40
13174;DHT22;6652;48.802;9.190;2023-08-21T07:58:15;39.90;70.20
13174;DHT22;6652;48.802;9.190;2023-08-21T08:00:43;40.10;69.50
13174;DHT22;6652;48.802;9.190;2023-08-21T08:03:10;40.40;69.70
13174;DHT22;6652;48.802;9.190;2023-08-21T08:05:39;41.10;67.60
13174;DHT22;6652;48.802;9.190;2023-08-21T08:08:06;41.00;67.50
13174;DHT22;6652;48.802;9.190;2023-08-21T08:10:33;41.10;68.10
13174;DHT22;6652;48.802;9.190;2023-08-21T08:13:00;41.50;65.10
13174;DHT22;6652;48.802;9.190;2023-08-21T08:15:26;41.50;64.40
13174;DHT22;6652;48.802;9.190;2023-08-21T08:17:55;41.50;64.80
13174;DHT22;6652;48.802;9.190;2023-08-21T08:20:22;41.60;63.60
13174;DHT22;6652;48.802;9.190;2023-08-21T08:22:49;41.70;64.00
13174;DHT22;6652;48.802;9.190;2023-08-21T08:25:15;41.30;63.50
13174;DHT22;6652;48.802;9.190;2023-08-21T08:27:43;40.90;64.60
13174;DHT22;6652;48.802;9.190;2023-08-21T08:30:10;41.30;64.10
13174;DHT22;6652;48.802;9.190;2023-08-21T08:32:37;41.90;64.30
13174;DHT22;6652;48.802;9.190;2023-08-21T08:35:07;42.30;61.50
13174;DHT22;6652;48.802;9.190;2023-08-21T08:37:34;42.50;58.60
13174;DHT22;6652;48.802;9.190;2023-08-21T08:40:01;42.60;57.90
13174;DHT22;6652;48.802;9.190;2023-08-21T08:42:29;43.00;58.10
13174;DHT22;6652;48.802;9.190;2023-08-21T08:44:56;43.00;57.40
13174;DHT22;6652;48.802;9.190;2023-08-21T08:47:24;42.90;57.20
13174;DHT22;6652;48.802;9.190;2023-08-21T08:49:53;42.80;57.20
13174;DHT22;6652;48.802;9.190;2023-08-21T08:52:23;42.10;57.30
13174;DHT22;6652;48.802;9.190;2023-08-21T08:54:52;42.10;56.90
13174;DHT22;6652;48.802;9.190;2023-08-21T08:57:20;42.20;57.40
13174;DHT22;6652;48.802;9.190;2023-08-21T08:59:46;42.80;58.20
13174;DHT22;6652;48.802;9.190;2023-08-21T09:02:13;43.10;56.10
13174;DHT22;6652;48.802;9.190;2023-08-21T09:04:40;42.70;55.40
13174;DHT22;6652;48.802;9.190;2023-08-21T09:07:07;42.50;55.80
13174;DHT22;6652;48.802;9.190;2023-08-21T09:09:39;42.30;56.30
13174;DHT22;6652;48.802;9.190;2023-08-21T09:12:10;42.10;56.80
13174;DHT22;6652;48.802;9.190;2023-08-21T09:14:39;42.30;57.30
13174;DHT22;6652;48.802;9.190;2023-08-21T09:17:05;42.50;56.40
13174;DHT22;6652;48.802;9.190;2023-08-21T09:19:32;42.40;55.90
13174;DHT22;6652;48.802;9.190;2023-08-21T09:22:00;42.40;55.50
13174;DHT22;6652;48.802;9.190;2023-08-21T09:24:33;42.50;55.50
13174;DHT22;6652;48.802;9.190;2023-08-21T09:27:02;43.00;55.40
13174;DHT22;6652;48.802;9.190;2023-08-21T09:29:38;43.40;55.20
13174;DHT22;6652;48.802;9.190;2023-08-21T09:32:05;43.30;55.00
13174;DHT22;6652;48.802;9.190;2023-08-21T09:34:34;43.60;54.00
13174;DHT22;6652;48.802;9.190;2023-08-21T09:37:05;43.30;53.20
13174;DHT22;6652;48.802;9.190;2023-08-21T09:39:33;42.80;53.70
13174;DHT22;6652;48.802;9.190;2023-08-21T09:42:04;42.10;53.90
13174;DHT22;6652;48.802;9.190;2023-08-21T09:44:35;41.80;54.40
13174;DHT22;6652;48.802;9.190;2023-08-21T09:47:02;42.00;51.80
13174;DHT22;6652;48.802;9.190;2023-08-21T09:49:29;42.00;51.50
13174;DHT22;6652;48.802;9.190;2023-08-21T09:51:58;42.00;52.30
13174;DHT22;6652;48.802;9.190;2023-08-21T09:54:25;42.40;52.70
13174;DHT22;6652;48.802;9.190;2023-08-21T09:56:52;42.70;52.00
13174;DHT22;6652;48.802;9.190;2023-08-21T09:59:21;43.10;52.50
13174;DHT22;6652;48.802;9.190;2023-08-21T10:01:50;43.10;51.50
13174;DHT22;6652;48.802;9.190;2023-08-21T10:04:18;43.30;51.00
13174;DHT22;6652;48.802;9.190;2023-08-21T10:06:48;43.00;50.40
13174;DHT22;6652;48.802;9.190;2023-08-21T10:09:17;42.70;51.00
13174;DHT22;6652;48.802;9.190;2023-08-21T10:11:44;42.50;51.40
13174;DHT22;6652;48.802;9.190;2023-08-21T10:14:11;42.50;51.60
13174;DHT22;6652;48.802;9.190;2023-08-21T10:16:41;42.50;51.90
13174;DHT22;6652;48.802;9.190;2023-08-21T10:19:08;42.90;51.20
13174;DHT22;6652;48.802;9.190;2023-08-21T10:21:36;42.80;51.10
13174;DHT22;6652;48.802;9.190;2023-08-21T10:24:03;42.40;51.20
13174;DHT22;6652;48.802;9.190;2023-08-21T10:26:30;42.40;52.70
13174;DHT22;6652;48.802;9.190;2023-08-21T10:28:59;42.60;51.60
13174;DHT22;6652;48.802;9.190;2023-08-21T10:31:32;42.60;51.50
13174;DHT22;6652;48.802;9.190;2023-08-21T10:34:03;41.90;51.70
13174;DHT22;6652;48.802;9.190;2023-08-21T10:37:06;42.00;52.50
13174;DHT22;6652;48.802;9.190;2023-08-21T10:39:35;42.00;51.80
13174;DHT22;6652;48.802;9.190;2023-08-21T10:42:06;41.40;52.50
13174;DHT22;6652;48.802;9.190;2023-08-21T10:44:46;40.90;53.20
13174;DHT22;6652;48.802;9.190;2023-08-21T10:47:15;40.30;53.90
13174;DHT22;6652;48.802;9.190;2023-08-21T10:49:45;39.20;55.30
13174;DHT22;6652;48.802;9.190;2023-08-21T10:52:12;38.20;57.60
13174;DHT22;6652;48.802;9.190;2023-08-21T10:54:44;37.80;59.40
13174;DHT22;6652;48.802;9.190;2023-08-21T10:57:11;37.50;60.50
13174;DHT22;6652;48.802;9.190;2023-08-21T10:59:38;37.40;59.90
13174;DHT22;6652;48.802;9.190;2023-08-21T11:02:05;37.10;60.00
13174;DHT22;6652;48.802;9.190;2023-08-21T11:04:39;36.60;60.80
13174;DHT22;6652;48.802;9.190;2023-08-21T11:07:08;36.00;63.40
13174;DHT22;6652;48.802;9.190;2023-08-21T11:09:35;36.00;63.40
13174;DHT22;6652;48.802;9.190;2023-08-21T11:12:06;35.60;64.00
13174;DHT22;6652;48.802;9.190;2023-08-21T11:14:33;35.40;65.70
13174;DHT22;6652;48.802;9.190;2023-08-21T11:17:00;35.50;64.50
13174;DHT22;6652;48.802;9.190;2023-08-21T11:19:30;35.50;65.30
13174;DHT22;6652;48.802;9.190;2023-08-21T11:21:57;35.60;64.60
13174;DHT22;6652;48.802;9.190;2023-08-21T11:24:30;35.60;65.80
13174;DHT22;6652;48.802;9.190;2023-08-21T11:26:58;35.60;66.30
13174;DHT22;6652;48.802;9.190;2023-08-21T11:29:25;35.80;65.30
13174;DHT22;6652;48.802;9.190;2023-08-21T11:31:52;36.00;65.30
13174;DHT22;6652;48.802;9.190;2023-08-21T11:34:19;36.30;64.60
13174;DHT22;6652;48.802;9.190;2023-08-21T11:36:47;36.00;63.40
13174;DHT22;6652;48.802;9.190;2023-08-21T11:39:15;35.60;64.30
13174;DHT22;6652;48.802;9.190;2023-08-21T11:41:55;35.30;64.30
13174;DHT22;6652;48.802;9.190;2023-08-21T11:44:22;35.10;65.90
13174;DHT22;6652;48.802;9.190;2023-08-21T11:46:51;35.10;66.70
13174;DHT22;6652;48.802;9.190;2023-08-21T11:49:18;35.40;67.60
13174;DHT22;6652;48.802;9.190;2023-08-21T11:51:47;35.50;65.30
13174;DHT22;6652;48.802;9.190;2023-08-21T11:54:16;35.20;66.20
13174;DHT22;6652;48.802;9.190;2023-08-21T11:56:43;35.10;66.50
13174;DHT22;6652;48.802;9.190;2023-08-21T11:59:21;34.70;67.80
13174;DHT22;6652;48.802;9.190;2023-08-21T12:01:50;34.70;66.70
13174;DHT22;6652;48.802;9.190;2023-08-21T12:04:17;34.60;68.10
13174;DHT22;6652;48.802;9.190;2023-08-21T12:06:44;34.60;67.70
13174;DHT22;6652;48.802;9.190;2023-08-21T12:09:11;34.80;68.60
13174;DHT22;6652;48.802;9.190;2023-08-21T12:11:37;35.20;68.30
13174;DHT22;6652;48.802;9.190;2023-08-21T12:14:04;35.40;66.80
13174;DHT22;6652;48.802;9.190;2023-08-21T12:16:32;35.50;66.50
13174;DHT22;6652;48.802;9.190;2023-08-21T12:18:59;35.40;64.90
13174;DHT22;6652;48.802;9.190;2023-08-21T12:21:28;35.10;65.30
13174;DHT22;6652;48.802;9.190;2023-08-21T12:23:56;35.10;66.20
13174;DHT22;6652;48.802;9.190;2023-08-21T12:26:23;35.30;67.70
13174;DHT22;6652;48.802;9.190;2023-08-21T12:28:50;35.30;66.10
13174;DHT22;6652;48.802;9.190;2023-08-21T12:31:17;35.10;66.80
13174;DHT22;6652;48.802;9.190;2023-08-21T12:33:45;34.80;67.70
13174;DHT22;6652;48.802;9.190;2023-08-21T12:36:11;34.50;67.90
13174;DHT22;6652;48.802;9.190;2023-08-21T12:38:38;34.60;68.30
13174;DHT22;6652;48.802;9.190;2023-08-21T12:41:05;34.70;67.60
13174;DHT22;6652;48.802;9.190;2023-08-21T12:43:32;34.70;67.30
13174;DHT22;6652;48.802;9.190;2023-08-21T12:45:59;34.70;67.60
13174;DHT22;6652;48.802;9.190;2023-08-21T12:48:25;34.90;67.80
13174;DHT22;6652;48.802;9.190;2023-08-21T12:50:53;34.80;67.80
13174;DHT22;6652;48.802;9.190;2023-08-21T12:53:20;35.00;67.70
13174;DHT22;6652;48.802;9.190;2023-08-21T12:55:47;35.10;67.90
13174;DHT22;6652;48.802;9.190;2023-08-21T12:58:14;35.20;67.70
13174;DHT22;6652;48.802;9.190;2023-08-21T13:00:41;35.20;68.10
13174;DHT22;6652;48.802;9.190;2023-08-21T13:03:08;35.40;68.40
13174;DHT22;6652;48.802;9.190;2023-08-21T13:05:35;35.50;66.80
13174;DHT22;6652;48.802;9.190;2023-08-21T13:08:03;35.60;65.60
13174;DHT22;6652;48.802;9.190;2023-08-21T13:10:30;35.80;66.90
13174;DHT22;6652;48.802;9.190;2023-08-21T13:12:57;35.80;65.90
13174;DHT22;6652;48.802;9.190;2023-08-21T13:15:24;35.60;65.90
13174;DHT22;6652;48.802;9.190;2023-08-21T13:17:50;35.50;66.70
13174;DHT22;6652;48.802;9.190;2023-08-21T13:20:17;35.50;65.50
13174;DHT22;6652;48.802;9.190;2023-08-21T13:22:45;35.40;66.80
13174;DHT22;6652;48.802;9.190;2023-08-21T13:25:15;35.60;67.10
13174;DHT22;6652;48.802;9.190;2023-08-21T13:27:43;35.60;66.70
13174;DHT22;6652;48.802;9.190;2023-08-21T13:30:11;35.60;67.30
13174;DHT22;6652;48.802;9.190;2023-08-21T13:32:38;35.60;67.50
13174;DHT22;6652;48.802;9.190;2023-08-21T13:35:05;35.80;66.90
13174;DHT22;6652;48.802;9.190;2023-08-21T13:37:34;35.80;65.90
13174;DHT22;6652;48.802;9.190;2023-08-21T13:40:01;35.70;66.30
13174;DHT22;6652;48.802;9.190;2023-08-21T13:42:37;35.60;66.50
13174;DHT22;6652;48.802;9.190;2023-08-21T13:45:07;35.80;66.50
13174;DHT22;6652;48.802;9.190;2023-08-21T13:47:34;35.80;65.40
13174;DHT22;6652;48.802;9.190;2023-08-21T13:50:01;36.00;65.50
13174;DHT22;6652;48.802;9.190;2023-08-21T13:52:29;35.80;64.90
13174;DHT22;6652;48.802;9.190;2023-08-21T13:54:55;35.50;65.30
13174;DHT22;6652;48.802;9.190;2023-08-21T13:57:22;35.50;66.20
13174;DHT22;6652;48.802;9.190;2023-08-21T13:59:50;35.50;65.50
13174;DHT22;6652;48.802;9.190;2023-08-21T14:02:17;35.50;65.60
13174;DHT22;6652;48.802;9.190;2023-08-21T14:04:45;35.60;65.90
13174;DHT22;6652;48.802;9.190;2023-08-21T14:07:12;35.70;65.70
13174;DHT22;6652;48.802;9.190;2023-08-21T14:09:39;35.80;64.80
13174;DHT22;6652;48.802;9.190;2023-08-21T14:12:06;35.80;64.50
13174;DHT22;6652;48.802;9.190;2023-08-21T14:14:35;35.50;65.50
13174;DHT22;6652;48.802;9.190;2023-08-21T14:17:04;35.30;66.30
13174;DHT22;6652;48.802;9.190;2023-08-21T14:19:31;35.30;65.80
13174;DHT22;6652;48.802;9.190;2023-08-21T14:21:58;35.20;65.70
13174;DHT22;6652;48.802;9.190;2023-08-21T14:24:26;34.90;66.70
13174;DHT22;6652;48.802;9.190;2023-08-21T14:26:53;34.80;67.10
13174;DHT22;6652;48.802;9.190;2023-08-21T14:29:20;34.90;66.70
13174;DHT22;6652;48.802;9.190;2023-08-21T14:31:47;34.90;66.40
13174;DHT22;6652;48.802;9.190;2023-08-21T14:34:15;34.90;66.70
13174;DHT22;6652;48.802;9.190;2023-08-21T14:36:42;34.90;67.50
13174;DHT22;6652;48.802;9.190;2023-08-21T14:39:09;34.90;66.90
13174;DHT22;6652;48.802;9.190;2023-08-21T14:41:37;34.90;66.40
13174;DHT22;6652;48.802;9.190;2023-08-21T14:44:04;34.90;66.40
13174;DHT22;6652;48.802;9.190;2023-08-21T14:46:31;34.80;67.40
13174;DHT22;6652;48.802;9.190;2023-08-21T14:48:58;34.70;67.20
13174;DHT22;6652;48.802;9.190;2023-08-21T14:51:27;34.70;67.40
13174;DHT22;6652;48.802;9.190;2023-08-21T14:53:53;34.70;67.50
13174;DHT22;6652;48.802;9.190;2023-08-21T14:56:21;34.60;67.00
13174;DHT22;6652;48.802;9.190;2023-08-21T14:58:48;34.40;67.40
13174;DHT22;6652;48.802;9.190;2023-08-21T15:01:15;34.40;68.30
13174;DHT22;6652;48.802;9.190;2023-08-21T15:03:42;34.20;68.10
13174;DHT22;6652;48.802;9.190;2023-08-21T15:06:09;34.20;68.50
13174;DHT22;6652;48.802;9.190;2023-08-21T15:08:39;34.30;68.50
13174;DHT22;6652;48.802;9.190;2023-08-21T15:11:07;34.20;68.60
13174;DHT22;6652;48.802;9.190;2023-08-21T15:13:34;34.10;68.90
13174;DHT22;6652;48.802;9.190;2023-08-21T15:16:01;34.10;69.60
13174;DHT22;6652;48.802;9.190;2023-08-21T15:18:28;34.20;69.20
13174;DHT22;6652;48.802;9.190;2023-08-21T15:20:54;34.20;69.90
13174;DHT22;6652;48.802;9.190;2023-08-21T15:23:21;34.40;68.90
13174;DHT22;6652;48.802;9.190;2023-08-21T15:25:50;34.30;69.20
13174;DHT22;6652;48.802;9.190;2023-08-21T15:28:17;34.50;68.90
13174;DHT22;6652;48.802;9.190;2023-08-21T15:30:44;34.40;69.80
13174;DHT22;6652;48.802;9.190;2023-08-21T15:33:11;34.50;69.60
13174;DHT22;6652;48.802;9.190;2023-08-21T15:35:38;34.50;69.20
13174;DHT22;6652;48.802;9.190;2023-08-21T15:38:04;34.40;68.90
13174;DHT22;6652;48.802;9.190;2023-08-21T15:40:31;34.20;69.20
13174;DHT22;6652;48.802;9.190;2023-08-21T15:43:02;34.10;70.10
13174;DHT22;6652;48.802;9.190;2023-08-21T15:45:29;34.10;71.00
13174;DHT22;6652;48.802;9.190;2023-08-21T15:47:56;33.90;71.00